Time;durP1;ratioP1;P1;durP2;ratioP2;P2;SDS_P1;SDS_P2;PMS_P1;PMS_P2;Temp;Humidity;BMP_temperature;BMP_pressure;BME280_temperature;BME280_humidity;BME280_pressure;Samples;Min_cycle;Max_cycle;Signal;HPM_P1;HPM_P2
2022/10/30 00:00:08;;;;;;;11.87;9.73;;;14.10;99.90;;;14.45;86.25;98423.41;5057050;28;20870;-73
2022/10/30 00:02:36;;;;;;;10.83;9.33;;;14.10;99.90;;;14.37;86.34;98409.31;5071082;28;20457;-72
2022/10/30 00:05:03;;;;;;;15.10;9.93;;;14.00;99.90;;;14.36;86.52;98413.94;5060068;28;20467;-74
2022/10/30 00:07:32;;;;;;;12.23;9.23;;;14.00;99.90;;;14.41;86.55;98408.63;5067247;28;20455;-73
2022/10/30 00:09:59;;;;;;;11.23;9.47;;;14.00;99.90;;;14.04;86.54;98362.53;5063770;28;20491;-74
2022/10/30 00:12:26;;;;;;;12.43;10.37;;;14.00;99.90;;;14.33;86.80;98411.69;5064172;28;20901;-74
2022/10/30 00:14:53;;;;;;;11.37;9.43;;;14.00;99.90;;;14.30;87.29;98403.97;5057098;28;20510;-75
2022/10/30 00:17:21;;;;;;;11.30;9.13;;;13.90;99.90;;;14.26;87.24;98402.78;5060873;28;21013;-74
2022/10/30 00:19:48;;;;;;;13.27;9.23;;;13.90;99.90;;;14.24;87.57;98407.63;5062133;28;20510;-74
2022/10/30 00:22:15;;;;;;;13.57;9.20;;;13.90;99.90;;;14.21;87.64;98402.66;5063571;28;20530;-73
2022/10/30 00:24:44;;;;;;;10.43;9.20;;;13.90;99.90;;;14.36;87.19;98404.94;5066816;28;20460;-74
2022/10/30 00:27:11;;;;;;;14.20;9.60;;;13.90;99.90;;;13.36;86.30;98234.09;5070981;28;20457;-73
2022/10/30 00:29:38;;;;;;;10.50;9.13;;;14.10;99.90;;;14.43;86.18;98398.34;5057229;28;20877;-74
2022/10/30 00:32:06;;;;;;;12.17;8.70;;;14.10;99.90;;;14.53;85.86;98394.25;5061036;28;20891;-74
2022/10/30 00:34:33;;;;;;;14.40;8.50;;;14.20;99.90;;;14.43;86.47;98400.25;5058466;28;21075;-73
2022/10/30 00:37:00;;;;;;;13.47;9.67;;;14.20;99.90;;;14.38;86.19;98395.50;5064607;28;20480;-72
2022/10/30 00:39:27;;;;;;;12.80;9.10;;;14.10;99.70;;;14.27;86.93;98397.13;5058203;28;20457;-73
2022/10/30 00:41:56;;;;;;;15.27;10.23;;;14.10;99.90;;;14.35;86.21;98395.97;5069686;28;21052;-73
2022/10/30 00:44:42;;;;;;;15.30;10.23;;;14.10;99.90;;;14.28;86.65;98396.06;5065827;28;20802;-73
2022/10/30 00:47:17;;;;;;;12.17;9.97;;;14.00;99.90;;;14.33;86.74;98400.81;5058459;28;20499;-73
2022/10/30 00:49:53;;;;;;;9.67;8.33;;;14.00;99.90;;;14.26;86.38;98402.78;5058713;28;20662;-72
2022/10/30 00:52:23;;;;;;;10.00;8.93;;;13.90;99.90;;;14.31;86.21;98395.59;5073087;28;20501;-73
2022/10/30 00:54:52;;;;;;;12.70;8.43;;;14.00;99.90;;;14.27;86.57;98399.00;5079515;28;20477;-73
2022/10/30 00:57:21;;;;;;;11.80;9.50;;;13.90;99.90;;;14.25;86.31;98390.25;5069174;28;20461;-73
2022/10/30 00:59:48;;;;;;;12.23;9.43;;;13.90;99.90;;;14.16;86.82;98390.56;5065255;28;20534;-73
2022/10/30 01:02:16;;;;;;;11.57;9.10;;;13.80;99.90;;;14.15;86.66;98396.25;5064089;28;20459;-73
2022/10/30 01:04:45;;;;;;;12.90;10.33;;;13.80;99.90;;;14.16;86.63;98393.28;5058850;28;20458;-73
2022/10/30 01:07:16;;;;;;;14.00;11.50;;;13.80;99.90;;;14.22;86.17;98374.41;5070773;28;20859;-72
2022/10/30 01:09:44;;;;;;;17.97;12.10;;;13.90;99.90;;;14.30;86.16;98393.09;5068001;28;20823;-72
2022/10/30 01:12:11;;;;;;;18.93;12.67;;;13.90;99.90;;;14.19;86.35;98391.19;5070410;28;20452;-72
2022/10/30 01:14:45;;;;;;;17.07;10.57;;;13.90;99.90;;;14.14;86.96;98395.41;5065829;28;20480;-74
2022/10/30 01:17:40;;;;;;;17.13;11.80;;;13.80;99.90;;;14.07;86.55;98370.22;5055073;28;20572;-72
2022/10/30 01:20:28;;;;;;;16.67;11.13;;;13.80;99.90;;;14.09;87.08;98381.69;5066615;28;20446;-72
2022/10/30 01:23:04;;;;;;;18.33;12.20;;;13.80;99.90;;;13.98;87.51;98387.88;5067146;28;20464;-73
2022/10/30 01:25:47;;;;;;;16.63;11.40;;;13.70;99.90;;;13.88;87.88;98375.69;5072787;28;20986;-73
2022/10/30 01:28:33;;;;;;;17.73;10.57;;;13.60;99.90;;;13.94;88.05;98378.53;5062114;28;20996;-73
2022/10/30 01:31:16;;;;;;;21.53;10.40;;;13.60;99.90;;;13.93;87.98;98372.25;5068385;28;20506;-73
2022/10/30 01:34:00;;;;;;;16.40;11.33;;;13.60;99.90;;;14.00;87.84;98383.03;5066351;28;20964;-74
2022/10/30 01:36:37;;;;;;;11.03;9.40;;;13.60;99.90;;;13.92;87.54;98375.22;5062912;28;20460;-73
2022/10/30 01:39:11;;;;;;;19.43;9.63;;;13.60;99.90;;;13.93;87.60;98374.16;5065770;28;20521;-72
2022/10/30 01:41:38;;;;;;;13.70;8.73;;;13.50;99.90;;;13.91;88.11;98379.00;5062060;28;20460;-73
2022/10/30 01:44:11;;;;;;;13.13;9.53;;;13.50;99.90;;;13.93;87.77;98368.75;5069250;28;20537;-73
2022/10/30 01:46:59;;;;;;;13.70;9.10;;;13.60;99.90;;;13.93;88.19;98366.84;5066226;28;20484;-74
2022/10/30 01:49:47;;;;;;;11.97;8.90;;;13.70;99.90;;;13.95;88.22;98374.75;5062934;28;20464;-72
2022/10/30 01:52:19;;;;;;;14.70;8.63;;;13.70;99.90;;;13.89;88.66;98376.50;5065961;28;20448;-71
2022/10/30 01:54:57;;;;;;;10.60;8.40;;;13.70;99.90;;;14.01;88.32;98371.13;5061281;28;20487;-73
2022/10/30 01:57:37;;;;;;;13.90;8.47;;;13.70;99.90;;;13.84;87.85;98355.47;5068174;28;20459;-72
2022/10/30 02:00:07;;;;;;;13.80;8.73;;;13.70;99.90;;;14.02;87.78;98370.06;5085046;28;20452;-74
2022/10/30 02:02:36;;;;;;;14.53;9.77;;;13.70;99.90;;;13.79;87.13;98314.59;5069480;28;20864;-74
2022/10/30 02:05:07;;;;;;;18.20;10.50;;;13.70;99.90;;;14.22;86.23;98364.34;5065843;28;20445;-74
2022/10/30 02:07:36;;;;;;;13.07;9.10;;;13.80;99.90;;;14.29;86.07;98372.41;5058900;28;20494;-75
2022/10/30 02:10:04;;;;;;;10.27;9.27;;;13.90;99.90;;;14.24;86.13;98366.84;5055964;28;20569;-74
2022/10/30 02:12:31;;;;;;;11.73;8.73;;;13.90;99.90;;;13.91;87.12;98357.28;5065207;28;20457;-74
2022/10/30 02:15:01;;;;;;;18.70;9.10;;;13.80;99.90;;;14.08;87.04;98374.59;5080953;28;20508;-75
2022/10/30 02:17:28;;;;;;;16.47;9.17;;;13.80;99.90;;;14.14;86.95;98373.66;5068083;28;20456;-73
2022/10/30 02:19:57;;;;;;;13.77;9.70;;;13.80;99.90;;;14.11;86.66;98371.41;5068434;28;20472;-74
2022/10/30 02:22:26;;;;;;;10.73;8.93;;;13.70;99.90;;;14.08;87.33;98373.75;5067883;28;20462;-74
2022/10/30 02:24:53;;;;;;;10.03;8.63;;;13.60;99.90;;;14.22;86.47;98361.63;5077071;28;20491;-73
2022/10/30 02:27:21;;;;;;;15.53;9.60;;;13.70;99.90;;;14.31;85.74;98364.84;5064937;28;20457;-72
2022/10/30 02:29:48;;;;;;;13.43;8.93;;;13.80;99.90;;;14.30;85.63;98345.03;5063285;28;20866;-73
2022/10/30 02:32:15;;;;;;;12.07;9.43;;;13.90;99.90;;;14.16;85.56;98349.00;5067350;28;20554;-74
2022/10/30 02:34:42;;;;;;;14.70;8.80;;;13.80;99.90;;;14.17;86.25;98367.75;5064604;28;20467;-72
2022/10/30 02:37:09;;;;;;;15.20;9.20;;;13.70;99.90;;;14.13;86.26;98372.00;5069304;28;20491;-74
2022/10/30 02:39:38;;;;;;;15.83;8.60;;;13.70;99.90;;;13.74;85.72;98276.44;5069319;28;20459;-72
2022/10/30 02:42:06;;;;;;;12.17;9.80;;;13.70;99.90;;;14.31;85.06;98354.84;5076743;28;20449;-77
2022/10/30 02:44:33;;;;;;;12.50;9.10;;;13.80;99.90;;;14.25;85.50;98363.09;5074979;28;20496;-77
2022/10/30 02:47:00;;;;;;;11.43;8.80;;;13.80;99.90;;;14.28;85.30;98355.31;5069815;28;20522;-79
2022/10/30 02:49:28;;;;;;;13.13;8.67;;;13.80;99.90;;;14.28;85.23;98362.59;5068357;28;20491;-76
2022/10/30 02:51:55;;;;;;;16.33;9.10;;;13.80;99.90;;;14.25;85.46;98355.75;5068983;28;20452;-77
2022/10/30 02:54:22;;;;;;;14.50;8.70;;;13.80;99.90;;;14.25;85.48;98361.19;5076315;28;20458;-78
2022/10/30 02:56:50;;;;;;;10.03;8.20;;;13.80;99.90;;;14.21;85.62;98356.47;5076011;28;20964;-76
2022/10/30 02:59:19;;;;;;;13.20;9.17;;;13.80;99.90;;;14.22;85.42;98355.41;5068890;28;20490;-76
2022/10/30 03:01:46;;;;;;;11.83;9.20;;;13.80;99.90;;;14.22;85.12;98352.69;5071335;28;20468;-76
2022/10/30 03:04:13;;;;;;;9.70;8.70;;;13.80;99.90;;;14.20;85.38;98355.63;5066091;28;20487;-76
2022/10/30 03:06:41;;;;;;;12.00;9.20;;;13.80;99.90;;;14.19;85.48;98342.28;5071999;28;20501;-77
2022/10/30 03:09:08;;;;;;;18.83;11.00;;;13.80;99.80;;;14.06;85.47;98348.72;5071425;28;20519;-77
2022/10/30 03:11:36;;;;;;;13.07;10.07;;;13.80;99.60;;;14.00;85.91;98355.88;5077015;28;20455;-76
2022/10/30 03:14:04;;;;;;;11.87;9.97;;;13.70;99.90;;;13.80;86.00;98348.84;5070053;28;20897;-78
2022/10/30 03:16:32;;;;;;;11.87;8.93;;;13.60;99.90;;;13.83;86.54;98353.00;5073858;28;20472;-77
2022/10/30 03:19:00;;;;;;;12.17;9.23;;;13.50;99.90;;;13.71;86.82;98361.91;5067539;28;20451;-76
2022/10/30 03:21:29;;;;;;;16.10;9.50;;;13.30;99.90;;;13.60;87.32;98347.19;5068829;28;20464;-77
2022/10/30 03:23:56;;;;;;;11.10;9.33;;;13.20;99.90;;;13.72;87.49;98365.41;5077566;28;20541;-79
2022/10/30 03:26:23;;;;;;;12.20;9.97;;;13.30;99.90;;;13.68;87.07;98331.66;5071463;28;20463;-78
2022/10/30 03:28:51;;;;;;;12.17;9.70;;;13.40;99.90;;;13.76;86.75;98344.09;5070317;28;20465;-77
2022/10/30 03:31:20;;;;;;;14.80;10.20;;;13.40;99.90;;;13.73;87.15;98361.69;5061951;28;20958;-77
2022/10/30 03:33:47;;;;;;;16.27;9.90;;;13.40;99.90;;;13.69;87.54;98352.31;5065268;28;21144;-77
2022/10/30 03:36:15;;;;;;;11.00;9.90;;;13.30;99.90;;;13.09;87.52;98264.25;5071007;28;20478;-78
2022/10/30 03:38:43;;;;;;;17.20;11.23;;;13.30;99.90;;;13.56;87.93;98351.41;5066832;28;20459;-79
2022/10/30 03:41:10;;;;;;;15.23;10.27;;;13.20;99.90;;;13.24;88.01;98302.69;5066778;28;21005;-78
2022/10/30 03:43:37;;;;;;;20.30;11.07;;;13.20;99.90;;;13.55;88.22;98344.31;5065227;28;20463;-77
2022/10/30 03:46:07;;;;;;;21.70;11.03;;;13.20;99.90;;;13.44;88.63;98350.53;5067091;28;20464;-80
2022/10/30 03:48:36;;;;;;;12.53;11.00;;;13.20;99.90;;;13.33;89.06;98341.19;5067295;28;20481;-77
2022/10/30 03:51:03;;;;;;;13.77;10.13;;;13.10;99.90;;;13.35;89.03;98343.69;5070021;28;20462;-78
2022/10/30 03:53:31;;;;;;;12.63;10.40;;;13.10;99.90;;;13.35;89.23;98349.97;5077987;28;20464;-79
2022/10/30 03:56:00;;;;;;;17.63;10.70;;;13.00;99.90;;;13.42;88.93;98356.13;5073384;28;21745;-77
2022/10/30 03:58:28;;;;;;;15.73;10.50;;;13.10;99.90;;;13.37;89.10;98349.72;5072178;28;20821;-77
2022/10/30 04:01:01;;;;;;;12.10;10.20;;;13.00;99.90;;;13.07;88.37;98286.19;5073977;28;20464;-75
2022/10/30 04:03:28;;;;;;;15.60;9.97;;;13.10;99.90;;;13.52;88.42;98341.25;5062928;28;20900;-80
2022/10/30 04:05:57;;;;;;;11.00;9.40;;;13.20;99.90;;;13.47;88.54;98350.06;5066750;28;20456;-77
2022/10/30 04:08:24;;;;;;;15.80;10.60;;;13.20;99.90;;;13.42;88.74;98330.88;5070675;28;20468;-76
2022/10/30 04:10:51;;;;;;;17.70;10.73;;;13.20;99.90;;;13.35;89.34;98339.13;5070950;28;20494;-76
2022/10/30 04:13:19;;;;;;;17.50;9.67;;;13.20;99.90;;;13.13;89.22;98293.41;5072128;28;20456;-76
2022/10/30 04:15:49;;;;;;;12.20;9.50;;;13.20;99.90;;;13.40;89.29;98332.97;5073390;28;20650;-76
2022/10/30 04:18:17;;;;;;;14.87;10.00;;;13.20;99.90;;;13.30;89.24;98320.78;5069779;28;20456;-79
2022/10/30 04:20:45;;;;;;;11.77;9.03;;;13.10;99.90;;;13.29;89.53;98340.84;5069272;28;20505;-77
2022/10/30 04:23:18;;;;;;;11.73;8.97;;;13.10;99.90;;;13.28;89.69;98338.34;5069012;28;20456;-75
2022/10/30 04:25:45;;;;;;;11.03;9.57;;;13.10;99.90;;;13.28;89.44;98327.50;5066380;28;20484;-79
2022/10/30 04:28:13;;;;;;;13.23;9.83;;;13.10;99.90;;;13.28;89.08;98333.75;5074799;28;20456;-78
2022/10/30 04:30:40;;;;;;;11.00;9.90;;;13.00;99.90;;;13.24;89.50;98335.25;5068123;28;20460;-78
2022/10/30 04:33:11;;;;;;;14.57;9.17;;;12.90;99.90;;;13.18;89.52;98333.44;5065416;28;20463;-77
2022/10/30 04:35:39;;;;;;;12.70;8.50;;;12.90;99.90;;;13.08;89.88;98338.53;5067542;28;20471;-77
2022/10/30 04:38:09;;;;;;;13.30;9.43;;;12.80;99.90;;;13.06;89.77;98336.06;5069533;28;20797;-80
2022/10/30 04:40:40;;;;;;;10.10;9.00;;;12.70;99.90;;;13.08;89.36;98338.53;5069650;28;20484;-77
2022/10/30 04:43:09;;;;;;;13.10;8.80;;;12.70;99.90;;;13.00;89.03;98347.78;5071556;28;20457;-75
2022/10/30 04:45:37;;;;;;;10.23;8.40;;;12.70;99.90;;;12.98;88.98;98350.75;5065079;28;20457;-76
2022/10/30 04:48:06;;;;;;;10.27;8.93;;;12.60;99.90;;;12.92;88.95;98343.47;5067225;28;20455;-76
2022/10/30 04:50:34;;;;;;;10.20;9.10;;;12.60;99.90;;;12.98;88.55;98339.91;5070332;28;20978;-77
2022/10/30 04:53:03;;;;;;;15.80;9.57;;;12.60;99.90;;;13.02;88.78;98340.25;5067342;28;20954;-76
2022/10/30 04:55:32;;;;;;;13.73;9.40;;;12.70;99.90;;;12.93;88.74;98331.59;5088526;28;20482;-75
2022/10/30 04:58:02;;;;;;;15.57;9.57;;;12.70;99.90;;;12.90;89.00;98353.72;5066414;28;21140;-75
2022/10/30 05:00:31;;;;;;;10.73;8.80;;;12.60;99.90;;;12.76;89.32;98347.59;5071196;28;20550;-76
2022/10/30 05:03:00;;;;;;;16.30;9.80;;;12.50;99.90;;;12.74;89.25;98360.56;5083275;28;20466;-78
2022/10/30 05:05:28;;;;;;;12.70;9.00;;;12.40;99.90;;;12.75;89.73;98354.91;5065890;28;20484;-75
2022/10/30 05:07:55;;;;;;;10.63;8.90;;;12.40;99.90;;;12.72;89.77;98357.22;5079118;28;20459;-79
2022/10/30 05:10:23;;;;;;;13.13;9.43;;;12.40;99.90;;;12.16;90.75;98305.53;5065758;28;20505;-75
2022/10/30 05:12:52;;;;;;;11.87;9.50;;;12.30;99.90;;;12.24;92.30;98364.84;5083058;28;20469;-77
2022/10/30 05:15:21;;;;;;;11.40;10.20;;;12.10;99.90;;;12.17;93.71;98364.88;5074508;28;20526;-77
2022/10/30 05:17:52;;;;;;;12.80;9.60;;;12.00;99.90;;;12.12;93.61;98370.13;5066094;28;20463;-76
2022/10/30 05:20:19;;;;;;;15.87;10.30;;;11.80;99.90;;;11.99;94.55;98368.31;5066261;28;20471;-77
2022/10/30 05:22:50;;;;;;;13.13;9.40;;;11.80;99.90;;;11.96;94.87;98370.59;5077369;28;21032;-77
2022/10/30 05:25:17;;;;;;;19.27;11.37;;;11.80;99.90;;;11.90;95.34;98373.13;5059254;28;20822;-78
2022/10/30 05:27:44;;;;;;;14.13;11.23;;;11.70;99.90;;;11.89;96.10;98376.88;5072986;28;20500;-76
2022/10/30 05:30:12;;;;;;;13.13;9.60;;;11.70;99.90;;;11.93;96.14;98379.16;5062831;28;20460;-78
2022/10/30 05:32:41;;;;;;;15.27;10.53;;;11.60;99.90;;;11.94;94.71;98356.47;5062765;28;20453;-78
2022/10/30 05:35:09;;;;;;;16.43;10.10;;;11.70;99.90;;;12.10;94.00;98371.38;5066664;28;20457;-79
2022/10/30 05:37:36;;;;;;;15.80;10.90;;;11.70;99.90;;;12.03;93.98;98364.13;5072701;28;20467;-77
2022/10/30 05:40:03;;;;;;;15.87;11.23;;;11.70;99.90;;;11.96;94.53;98371.41;5062316;28;20873;-78
2022/10/30 05:42:31;;;;;;;15.73;11.37;;;11.60;99.90;;;11.92;95.42;98363.97;5070654;28;20793;-78
2022/10/30 05:44:58;;;;;;;13.30;11.33;;;11.60;99.90;;;11.90;94.47;98362.31;5068075;28;20454;-72
2022/10/30 05:47:25;;;;;;;15.73;12.13;;;11.60;99.90;;;11.97;94.71;98367.66;5063060;28;20492;-69
2022/10/30 05:49:54;;;;;;;17.90;10.97;;;11.50;99.90;;;12.03;94.51;98366.00;5060338;28;20455;-69
2022/10/30 05:52:21;;;;;;;18.07;10.40;;;11.60;99.90;;;12.31;92.78;98365.66;5065970;28;20486;-68
2022/10/30 05:54:48;;;;;;;14.57;10.77;;;11.80;99.90;;;12.25;92.61;98362.97;5077824;28;20459;-68
2022/10/30 05:57:15;;;;;;;13.30;11.10;;;11.90;99.90;;;11.46;93.89;98280.06;5054721;28;21067;-76
2022/10/30 05:59:42;;;;;;;15.97;11.43;;;11.90;99.90;;;11.74;94.62;98314.88;5065983;28;20509;-71
2022/10/30 06:02:10;;;;;;;14.90;11.57;;;11.90;99.90;;;12.15;94.26;98369.69;5069473;28;20470;-72
2022/10/30 06:04:37;;;;;;;14.60;10.70;;;12.00;99.90;;;12.11;94.23;98368.47;5055740;28;20934;-72
2022/10/30 06:07:06;;;;;;;18.00;12.57;;;11.90;99.90;;;12.14;94.42;98368.03;5062545;28;20976;-76
2022/10/30 06:09:33;;;;;;;14.77;12.03;;;12.00;99.90;;;12.06;94.00;98354.75;5052948;28;20871;-73
2022/10/30 06:12:00;;;;;;;12.93;9.80;;;12.00;99.90;;;12.12;93.35;98356.59;5066217;28;20866;-74
2022/10/30 06:14:27;;;;;;;10.93;9.80;;;12.00;99.90;;;12.26;93.37;98370.06;5071224;28;20475;-72
2022/10/30 06:16:54;;;;;;;14.97;11.33;;;12.00;99.90;;;11.93;92.92;98323.13;5071025;28;20558;-73
2022/10/30 06:19:22;;;;;;;13.07;11.00;;;12.00;99.90;;;12.36;92.70;98375.84;5063976;28;20457;-73
2022/10/30 06:21:49;;;;;;;16.90;11.07;;;12.00;99.90;;;12.12;91.99;98331.38;5063071;28;20468;-72
2022/10/30 06:24:18;;;;;;;12.90;11.47;;;12.10;99.90;;;12.43;91.95;98368.47;5065271;28;20496;-72
2022/10/30 06:26:45;;;;;;;15.70;11.37;;;12.10;99.90;;;12.37;92.29;98374.78;5050602;28;20451;-70
2022/10/30 06:29:12;;;;;;;11.67;10.50;;;12.10;99.90;;;12.37;92.93;98388.34;5069905;28;20451;-73
2022/10/30 06:31:39;;;;;;;13.63;10.40;;;12.00;99.90;;;12.40;93.56;98382.47;5059847;28;20523;-72
2022/10/30 06:34:06;;;;;;;13.33;10.70;;;12.10;99.90;;;12.42;93.23;98377.66;5065084;28;20464;-71
2022/10/30 06:36:35;;;;;;;13.83;9.93;;;12.10;99.90;;;12.37;92.94;98361.25;5072821;28;20481;-70
2022/10/30 06:39:02;;;;;;;11.43;10.37;;;12.20;99.90;;;12.52;92.76;98379.06;5040353;28;20464;-73
2022/10/30 06:41:32;;;;;;;13.03;10.60;;;12.20;99.90;;;12.58;92.30;98383.59;5081240;28;20484;-71
2022/10/30 06:44:00;;;;;;;14.30;11.30;;;12.30;99.90;;;12.26;91.89;98322.09;5051235;28;20494;-73
2022/10/30 06:46:27;;;;;;;11.63;10.43;;;12.40;99.90;;;12.64;91.47;98382.72;5057764;28;20537;-71
2022/10/30 06:48:54;;;;;;;15.30;11.13;;;12.40;99.90;;;12.68;91.54;98380.41;5061832;28;20494;-75
2022/10/30 06:51:22;;;;;;;14.03;9.60;;;12.40;99.90;;;12.69;91.23;98385.59;5064010;28;20545;-69
2022/10/30 06:53:49;;;;;;;13.00;8.80;;;12.50;99.90;;;12.82;90.42;98387.38;5064667;28;20467;-68
2022/10/30 06:56:16;;;;;;;16.63;9.70;;;12.60;99.90;;;13.00;89.99;98392.03;5064129;28;20479;-68
2022/10/30 06:58:45;;;;;;;10.30;8.57;;;12.70;99.90;;;13.06;89.41;98386.75;5060914;28;20468;-68
2022/10/30 07:01:12;;;;;;;13.00;9.87;;;12.70;99.90;;;13.13;89.67;98385.66;5063454;28;20509;-68
2022/10/30 07:03:39;;;;;;;17.30;9.43;;;12.80;99.90;;;13.19;89.49;98394.78;5045259;28;20448;-67
2022/10/30 07:06:07;;;;;;;12.40;9.30;;;12.80;99.90;;;13.26;88.51;98392.81;5059134;28;20494;-69
2022/10/30 07:08:34;;;;;;;11.73;9.00;;;12.90;99.90;;;13.31;87.96;98390.28;5060126;28;20507;-70
2022/10/30 07:11:01;;;;;;;15.53;8.97;;;13.00;99.90;;;13.29;87.47;98394.25;5065166;28;21344;-69
2022/10/30 07:13:28;;;;;;;11.97;7.90;;;13.00;99.90;;;13.20;87.87;98390.19;5060668;28;20459;-69
2022/10/30 07:15:58;;;;;;;13.90;9.00;;;13.10;99.90;;;13.21;87.35;98392.66;5057127;28;20707;-73
2022/10/30 07:18:25;;;;;;;11.97;8.40;;;13.10;99.50;;;13.27;86.99;98386.38;5059623;28;20471;-69
2022/10/30 07:20:55;;;;;;;11.33;8.60;;;13.20;99.00;;;13.24;86.91;98392.22;5055095;28;20474;-67
2022/10/30 07:23:22;;;;;;;11.50;8.67;;;13.20;99.30;;;13.32;86.89;98399.25;5059791;28;20479;-68
2022/10/30 07:25:49;;;;;;;10.60;8.30;;;13.20;98.90;;;13.48;86.21;98408.72;5067524;28;20974;-68
2022/10/30 07:28:17;;;;;;;19.40;8.77;;;13.30;98.80;;;13.58;85.62;98416.34;5065264;28;20467;-69
2022/10/30 07:30:44;;;;;;;12.83;7.87;;;13.40;97.70;;;13.25;85.41;98350.47;5059685;28;20491;-68
2022/10/30 07:33:13;;;;;;;13.17;8.83;;;13.40;98.20;;;13.72;84.70;98400.72;5065934;28;20514;-68
2022/10/30 07:35:40;;;;;;;8.37;7.40;;;13.50;97.60;;;13.79;84.38;98404.19;5051914;28;20859;-69
2022/10/30 07:38:10;;;;;;;18.07;8.43;;;13.50;97.10;;;13.83;84.48;98408.13;5057128;28;20542;-69
2022/10/30 07:40:38;;;;;;;14.27;8.50;;;13.60;96.20;;;13.79;83.76;98393.34;5060387;28;20460;-68
2022/10/30 07:43:05;;;;;;;13.17;8.93;;;13.70;95.90;;;13.80;84.05;98403.16;5058470;28;20546;-68
2022/10/30 07:45:33;;;;;;;13.63;8.37;;;13.70;95.90;;;13.96;83.85;98401.72;5062369;28;20459;-67
2022/10/30 07:48:00;;;;;;;10.70;9.13;;;13.70;95.90;;;13.84;84.33;98403.53;5056313;28;20451;-68
2022/10/30 07:50:29;;;;;;;13.20;8.77;;;13.70;95.80;;;13.97;83.33;98405.25;5072909;28;20468;-68
2022/10/30 07:52:56;;;;;;;10.30;8.33;;;13.80;95.80;;;14.02;83.17;98408.09;5056412;28;20465;-69
2022/10/30 07:55:24;;;;;;;13.43;8.73;;;13.80;95.50;;;13.88;83.69;98400.13;5060670;28;20459;-68
2022/10/30 07:57:51;;;;;;;14.77;8.03;;;13.70;95.70;;;13.88;83.21;98397.41;5052682;28;20483;-69
2022/10/30 08:00:19;;;;;;;14.73;8.10;;;13.80;95.20;;;13.63;83.36;98358.66;5056777;28;20475;-70
2022/10/30 08:02:50;;;;;;;11.53;8.43;;;13.80;95.00;;;14.20;82.58;98409.16;5053465;28;20461;-68
2022/10/30 08:05:18;;;;;;;14.10;8.60;;;13.90;95.10;;;14.28;82.25;98409.66;5052719;28;21811;-68
2022/10/30 08:07:47;;;;;;;11.83;8.20;;;14.00;94.80;;;14.42;81.70;98406.75;5058749;28;20968;-68
2022/10/30 08:10:15;;;;;;;10.60;8.10;;;14.00;95.00;;;14.37;81.36;98404.72;5054978;28;20564;-69
2022/10/30 08:12:44;;;;;;;10.70;8.60;;;14.10;94.20;;;14.67;80.38;98409.31;5065000;28;20470;-69
2022/10/30 08:15:12;;;;;;;13.90;8.90;;;14.20;93.90;;;14.61;79.99;98412.94;5065859;28;20444;-70
2022/10/30 08:17:43;;;;;;;12.67;8.80;;;14.30;93.40;;;14.49;80.92;98406.66;5059031;28;20483;-69
2022/10/30 08:20:12;;;;;;;8.93;8.00;;;14.30;93.40;;;14.53;80.23;98394.25;5057135;28;20543;-69
2022/10/30 08:22:49;;;;;;;9.67;8.73;;;14.40;93.30;;;14.55;80.45;98403.00;5070980;28;20475;-67
2022/10/30 08:25:18;;;;;;;12.83;8.70;;;14.40;93.20;;;14.69;79.63;98390.88;5063986;28;21033;-68
2022/10/30 08:27:55;;;;;;;12.67;8.30;;;14.50;93.00;;;14.91;78.90;98403.13;5057240;28;20499;-69
2022/10/30 08:30:24;;;;;;;12.13;8.83;;;14.60;92.70;;;15.07;78.78;98412.47;5063824;28;20456;-67
2022/10/30 08:32:51;;;;;;;16.40;8.30;;;14.70;92.50;;;15.08;78.33;98406.78;5056333;28;20529;-69
2022/10/30 08:35:18;;;;;;;10.53;8.10;;;14.80;92.40;;;15.26;78.06;98408.59;5063411;28;20555;-70
2022/10/30 08:37:47;;;;;;;10.80;7.40;;;14.90;92.40;;;15.18;77.55;98403.50;5058503;28;20505;-71
2022/10/30 08:40:14;;;;;;;9.20;8.00;;;15.00;91.70;;;15.16;77.55;98402.91;5058467;28;20469;-73
2022/10/30 08:42:41;;;;;;;11.60;8.40;;;15.00;91.50;;;15.36;77.23;98409.88;5061521;28;20864;-73
2022/10/30 08:45:10;;;;;;;11.27;8.07;;;15.10;91.50;;;15.52;76.57;98409.16;5051922;28;21066;-73
2022/10/30 08:47:37;;;;;;;9.63;6.90;;;15.30;91.20;;;15.69;76.05;98413.88;5054918;28;20619;-72
2022/10/30 08:50:05;;;;;;;14.20;8.67;;;15.40;91.10;;;15.68;75.85;98412.22;5063968;28;20457;-72
2022/10/30 08:52:33;;;;;;;10.90;7.80;;;15.50;90.90;;;15.87;75.11;98410.16;5057175;28;20537;-72
2022/10/30 08:55:01;;;;;;;15.00;8.33;;;15.60;90.70;;;16.05;74.77;98411.94;5058971;28;21055;-72
2022/10/30 08:57:29;;;;;;;14.80;8.50;;;15.70;90.50;;;15.97;75.04;98410.41;5070397;28;20478;-70
2022/10/30 08:59:56;;;;;;;10.40;7.93;;;15.70;90.40;;;15.96;74.93;98405.19;5062213;28;20535;-73
2022/10/30 09:02:23;;;;;;;11.00;7.63;;;15.80;90.30;;;16.13;74.35;98408.81;5075161;28;20468;-71
2022/10/30 09:04:51;;;;;;;9.60;7.60;;;15.80;90.20;;;16.25;73.61;98399.78;5063092;28;20464;-71
2022/10/30 09:07:18;;;;;;;9.33;7.00;;;16.00;90.10;;;16.11;73.22;98393.78;5071316;28;20463;-71
2022/10/30 09:09:45;;;;;;;10.83;8.00;;;16.00;89.50;;;16.24;73.71;98403.56;5052657;28;21218;-71
2022/10/30 09:12:13;;;;;;;13.03;8.37;;;16.00;89.80;;;16.22;73.76;98389.34;5052089;28;20467;-72
2022/10/30 09:14:41;;;;;;;9.43;7.67;;;16.00;89.80;;;16.10;74.26;98392.94;5057219;28;21006;-73
2022/10/30 09:17:08;;;;;;;15.13;6.90;;;16.00;89.80;;;16.27;73.56;98392.16;5057184;28;20909;-74
2022/10/30 09:19:35;;;;;;;11.67;8.10;;;16.10;89.80;;;16.32;73.87;98400.47;5057503;28;20473;-74
2022/10/30 09:22:02;;;;;;;12.43;8.37;;;16.20;89.90;;;16.25;74.04;98397.03;5050418;28;21095;-72
2022/10/30 09:24:29;;;;;;;9.10;7.50;;;16.20;89.70;;;16.36;73.85;98389.88;5051563;28;20469;-68
2022/10/30 09:26:57;;;;;;;11.70;8.60;;;16.20;89.70;;;16.58;73.24;98387.28;5059965;28;20705;-67
2022/10/30 09:29:25;;;;;;;9.23;7.23;;;16.30;89.70;;;16.69;72.88;98394.56;5056040;28;20462;-68
2022/10/30 09:31:53;;;;;;;10.87;7.23;;;16.50;89.40;;;16.92;71.79;98397.41;5058572;28;20449;-68
2022/10/30 09:34:20;;;;;;;12.27;7.10;;;16.60;89.00;;;16.97;71.59;98384.66;5070710;28;20506;-69
2022/10/30 09:36:48;;;;;;;7.97;6.77;;;16.70;89.00;;;17.27;70.94;98380.78;5055453;28;20464;-66
2022/10/30 09:39:15;;;;;;;9.83;7.17;;;16.90;89.00;;;17.35;70.36;98389.63;5064749;28;20470;-67
2022/10/30 09:42:10;;;;;;;14.30;6.70;;;17.00;88.50;;;17.54;69.72;98387.44;5065622;28;20450;-67
2022/10/30 09:44:51;;;;;;;9.13;6.80;;;17.10;88.30;;;17.64;69.47;98393.03;5072641;28;20451;-69
2022/10/30 09:47:28;;;;;;;13.13;7.30;;;17.20;88.30;;;17.66;69.46;98390.03;5058266;28;20483;-67
2022/10/30 09:50:13;;;;;;;12.67;8.50;;;17.30;88.10;;;17.77;68.82;98391.03;5057452;28;20471;-67
2022/10/30 09:52:46;;;;;;;13.37;7.70;;;17.30;87.80;;;17.58;69.82;98385.03;5053915;28;20543;-68
2022/10/30 09:55:30;;;;;;;8.07;6.97;;;17.30;87.80;;;17.69;69.39;98392.28;5064392;28;20467;-67
2022/10/30 09:58:09;;;;;;;10.17;7.10;;;17.30;87.80;;;17.81;68.99;98392.97;5055128;28;20528;-69
2022/10/30 10:00:44;;;;;;;15.17;8.17;;;17.40;87.80;;;17.88;68.55;98386.50;5057202;28;20748;-68
2022/10/30 10:03:27;;;;;;;9.30;7.33;;;17.40;87.70;;;17.90;68.45;98377.00;5054585;28;20444;-71
2022/10/30 10:05:58;;;;;;;12.40;7.73;;;17.50;87.60;;;17.89;68.15;98371.75;5060573;28;21178;-71
2022/10/30 10:08:34;;;;;;;10.77;7.40;;;17.60;87.20;;;18.25;67.74;98383.97;5063546;28;20462;-72
2022/10/30 10:11:08;;;;;;;11.33;7.63;;;17.70;87.20;;;18.35;66.92;98380.50;5056868;28;20464;-72
2022/10/30 10:13:42;;;;;;;9.23;6.80;;;17.90;86.90;;;18.36;67.37;98365.75;5055119;28;20545;-71
2022/10/30 10:16:18;;;;;;;10.10;6.90;;;17.90;87.00;;;18.59;66.36;98372.00;5068058;28;20456;-73
2022/10/30 10:18:48;;;;;;;10.67;7.43;;;18.10;86.80;;;18.53;66.30;98375.75;5055241;28;20525;-70